createdAt,value
2023-03-14T00:00:12.893Z,11.13
2023-03-14T00:01:18.015Z,11.40
2023-03-14T00:02:22.529Z,13.95
2023-03-14T00:03:24.479Z,11.52
2023-03-14T00:04:26.484Z,7.95
2023-03-14T00:05:29.627Z,10.85
2023-03-14T00:06:32.529Z,8.50
2023-03-14T00:07:37.516Z,11.75
2023-03-14T00:08:39.778Z,10.32
2023-03-14T00:09:42.388Z,12.00
2023-03-14T00:10:44.488Z,11.60
2023-03-14T00:11:47.003Z,8.68
2023-03-14T00:12:49.083Z,12.60
2023-03-14T00:13:52.340Z,7.78
2023-03-14T00:14:54.563Z,9.23
2023-03-14T00:15:57.615Z,9.35
2023-03-14T00:16:59.603Z,8.88
2023-03-14T00:18:01.714Z,11.43
2023-03-14T00:19:03.899Z,11.98
2023-03-14T00:20:12.352Z,10.05
2023-03-14T00:21:14.399Z,9.82
2023-03-14T00:22:16.565Z,9.00
2023-03-14T00:23:18.587Z,9.43
2023-03-14T00:24:20.668Z,9.98
2023-03-14T00:25:23.226Z,10.23
2023-03-14T00:26:26.333Z,8.60
2023-03-14T00:27:28.514Z,6.55
2023-03-14T00:28:30.724Z,9.88
2023-03-14T00:29:32.727Z,7.43
2023-03-14T00:30:38.709Z,9.02
2023-03-14T00:31:41.970Z,9.13
2023-03-14T00:32:46.185Z,7.30
2023-03-14T00:33:50.299Z,10.57
2023-03-14T00:34:52.210Z,9.18
2023-03-14T00:36:00.019Z,8.40
2023-03-14T00:37:04.772Z,7.43
2023-03-14T00:38:07.298Z,6.65
2023-03-14T00:39:09.388Z,6.65
2023-03-14T00:40:11.704Z,10.63
2023-03-14T00:41:18.175Z,7.68
2023-03-14T00:42:20.163Z,6.53
2023-03-14T00:43:23.311Z,8.13
2023-03-14T00:44:25.951Z,9.50
2023-03-14T00:45:27.848Z,6.80
2023-03-14T00:46:30.003Z,7.68
2023-03-14T00:47:32.029Z,9.35
2023-03-14T00:48:34.928Z,8.27
2023-03-14T00:49:36.943Z,8.25
2023-03-14T00:50:38.911Z,7.45
2023-03-14T00:51:40.864Z,7.50
2023-03-14T00:52:42.975Z,8.35
2023-03-14T00:53:45.773Z,6.15
2023-03-14T00:54:47.702Z,6.78
2023-03-14T00:55:49.667Z,6.63
2023-03-14T00:56:51.633Z,6.75
2023-03-14T00:57:53.976Z,7.80
2023-03-14T00:58:57.213Z,7.07
2023-03-14T00:59:59.439Z,6.95
2023-03-14T01:01:16.690Z,8.18
2023-03-14T01:02:18.682Z,7.85
2023-03-14T01:03:21.950Z,7.45
2023-03-14T01:04:25.359Z,7.25
2023-03-14T01:05:28.268Z,8.27
2023-03-14T01:06:31.812Z,7.78
2023-03-14T01:07:34.233Z,6.97
2023-03-14T01:08:36.264Z,7.28
2023-03-14T01:09:38.277Z,7.80
2023-03-14T01:10:41.955Z,7.43
2023-03-14T01:11:47.491Z,8.95
2023-03-14T01:12:50.149Z,9.93
2023-03-14T01:13:53.036Z,7.55
2023-03-14T01:14:55.343Z,6.57
2023-03-14T01:16:03.563Z,8.30
2023-03-14T01:17:08.479Z,7.13
2023-03-14T01:18:10.500Z,8.63
2023-03-14T01:19:12.623Z,8.93
2023-03-14T01:20:17.985Z,8.68
2023-03-14T01:21:23.013Z,8.25
2023-03-14T01:22:25.037Z,8.27
2023-03-14T01:23:28.730Z,7.88
2023-03-14T01:24:31.910Z,12.25
2023-03-14T01:25:34.698Z,6.13
2023-03-14T01:26:36.894Z,7.45
2023-03-14T01:27:43.010Z,9.38
2023-03-14T01:28:46.305Z,7.63
2023-03-14T01:29:49.065Z,6.82
2023-03-14T01:30:51.777Z,6.15
2023-03-14T01:31:55.240Z,8.13
2023-03-14T01:32:57.234Z,8.50
2023-03-14T01:33:59.385Z,6.93
2023-03-14T01:35:02.574Z,7.07
2023-03-14T01:36:06.116Z,9.35
2023-03-14T01:37:09.111Z,7.03
2023-03-14T01:38:14.003Z,8.35
2023-03-14T01:39:16.151Z,6.43
2023-03-14T01:40:18.972Z,9.52
2023-03-14T01:41:24.650Z,7.03
2023-03-14T01:42:28.441Z,11.63
2023-03-14T01:43:31.933Z,6.97
2023-03-14T01:44:53.845Z,8.73
2023-03-14T01:46:05.087Z,10.57
2023-03-14T01:47:08.095Z,8.57
2023-03-14T01:48:10.264Z,7.30
2023-03-14T01:49:12.228Z,6.95
2023-03-14T01:50:15.212Z,8.73
2023-03-14T01:51:27.851Z,7.53
2023-03-14T01:52:37.329Z,7.97
2023-03-14T01:53:42.416Z,6.45
2023-03-14T01:54:51.585Z,7.50
2023-03-14T01:57:06.912Z,9.02
2023-03-14T01:58:11.836Z,7.93
2023-03-14T01:59:14.340Z,7.70
2023-03-14T02:00:19.453Z,8.00
2023-03-14T02:01:27.255Z,8.20
2023-03-14T02:02:31.398Z,8.35
2023-03-14T02:03:39.605Z,9.63
2023-03-14T02:04:43.005Z,7.63
2023-03-14T02:05:48.258Z,7.88
2023-03-14T02:07:01.550Z,7.88
2023-03-14T02:08:12.560Z,10.00
2023-03-14T02:09:21.576Z,8.23
2023-03-14T02:10:28.453Z,8.80
2023-03-14T02:11:31.973Z,9.15
2023-03-14T02:13:03.120Z,8.55
2023-03-14T02:14:25.774Z,9.45
2023-03-14T02:15:50.579Z,11.27
2023-03-14T02:17:09.586Z,11.57
2023-03-14T02:18:33.105Z,12.15
2023-03-14T02:20:27.670Z,9.45
2023-03-14T02:21:50.829Z,11.70
2023-03-14T02:22:57.088Z,9.55
2023-03-14T02:24:27.055Z,10.52
2023-03-14T02:25:40.865Z,10.80
2023-03-14T02:27:08.669Z,9.93
2023-03-14T02:28:14.160Z,12.25
2023-03-14T02:29:18.180Z,12.27
2023-03-14T02:30:27.338Z,15.10
2023-03-14T02:31:29.470Z,14.05
2023-03-14T02:32:35.137Z,12.60
2023-03-14T02:33:39.822Z,15.13
2023-03-14T02:34:44.543Z,13.48
2023-03-14T02:35:53.316Z,13.30
2023-03-14T02:36:55.536Z,13.93
2023-03-14T02:38:32.742Z,13.93
2023-03-14T02:40:43.762Z,13.00
2023-03-14T02:41:51.203Z,18.55
2023-03-14T02:42:54.613Z,14.60
2023-03-14T02:43:57.199Z,14.35
2023-03-14T02:45:08.909Z,15.20
2023-03-14T02:46:19.428Z,14.43
2023-03-14T02:47:27.563Z,13.82
2023-03-14T02:48:35.434Z,13.73
2023-03-14T02:49:37.800Z,15.48
2023-03-14T02:50:41.379Z,13.20
2023-03-14T02:51:46.620Z,16.38
2023-03-14T02:52:48.724Z,16.65
2023-03-14T02:53:50.962Z,17.48
2023-03-14T02:54:53.296Z,15.68
2023-03-14T02:55:56.272Z,13.02
2023-03-14T02:56:59.692Z,15.88
2023-03-14T02:58:02.013Z,17.88
2023-03-14T02:59:05.959Z,19.13
2023-03-14T03:00:18.391Z,15.32
2023-03-14T03:01:23.691Z,16.83
2023-03-14T03:02:25.872Z,16.02
2023-03-14T03:03:28.238Z,15.10
2023-03-14T03:04:30.810Z,16.10
2023-03-14T03:05:35.982Z,16.30
2023-03-14T03:06:38.696Z,18.95
2023-03-14T03:07:41.832Z,17.10
2023-03-14T03:08:45.049Z,17.42
2023-03-14T03:09:48.429Z,16.13
2023-03-14T03:10:50.920Z,17.90
2023-03-14T03:11:53.191Z,20.98
2023-03-14T03:12:58.971Z,18.00
2023-03-14T03:14:03.794Z,17.02
2023-03-14T03:15:07.726Z,16.70
2023-03-14T03:16:14.843Z,17.00
2023-03-14T03:17:17.577Z,16.85
2023-03-14T03:18:20.149Z,15.90
2023-03-14T03:19:22.312Z,16.25
2023-03-14T03:20:24.556Z,15.10
2023-03-14T03:21:27.040Z,19.50
2023-03-14T03:22:29.139Z,15.65
2023-03-14T03:23:31.650Z,16.75
2023-03-14T03:24:33.892Z,14.98
2023-03-14T03:25:37.859Z,21.98
2023-03-14T03:26:40.951Z,15.52
2023-03-14T03:27:46.928Z,18.95
2023-03-14T03:28:53.368Z,15.43
2023-03-14T03:29:56.161Z,14.70
2023-03-14T03:30:58.575Z,15.57
2023-03-14T03:32:00.852Z,13.75
2023-03-14T03:33:03.346Z,13.50
2023-03-14T03:34:05.923Z,16.92
2023-03-14T03:35:09.109Z,14.13
2023-03-14T03:36:15.078Z,15.63
2023-03-14T03:37:17.735Z,14.18
2023-03-14T03:38:21.779Z,13.77
2023-03-14T03:39:26.657Z,12.38
2023-03-14T03:40:29.720Z,14.88
2023-03-14T03:41:32.857Z,15.18
2023-03-14T03:42:36.784Z,16.60
2023-03-14T03:43:41.081Z,14.40
2023-03-14T03:44:45.822Z,13.82
2023-03-14T03:45:48.850Z,14.13
2023-03-14T03:46:51.146Z,13.00
2023-03-14T03:47:54.094Z,13.63
2023-03-14T03:48:57.403Z,12.70
2023-03-14T03:50:00.550Z,13.77
2023-03-14T03:51:03.971Z,15.63
2023-03-14T03:52:06.778Z,15.43
2023-03-14T03:53:10.262Z,12.50
2023-03-14T03:54:14.943Z,11.82
2023-03-14T03:55:24.772Z,13.23
2023-03-14T03:56:27.131Z,13.02
2023-03-14T03:57:32.606Z,14.80
2023-03-14T03:58:38.007Z,16.92
2023-03-14T03:59:42.032Z,15.07
2023-03-14T04:00:44.170Z,13.00
2023-03-14T04:01:47.679Z,16.05
2023-03-14T04:02:50.764Z,14.40
2023-03-14T04:03:55.576Z,15.05
2023-03-14T04:04:57.942Z,14.10
2023-03-14T04:06:05.816Z,15.23
2023-03-14T04:07:10.594Z,13.82
2023-03-14T04:08:13.097Z,11.77
2023-03-14T04:09:15.654Z,14.48
2023-03-14T04:10:23.412Z,13.48
2023-03-14T04:11:42.817Z,14.15
2023-03-14T04:12:57.590Z,16.25
2023-03-14T04:14:04.017Z,11.65
2023-03-14T04:15:06.881Z,14.48
2023-03-14T04:16:18.931Z,13.15
2023-03-14T04:17:22.745Z,13.55
2023-03-14T04:18:31.614Z,15.63
2023-03-14T04:19:33.935Z,14.18
2023-03-14T04:20:36.561Z,13.52
2023-03-14T04:21:46.353Z,11.90
2023-03-14T04:22:49.942Z,12.07
2023-03-14T04:23:52.289Z,14.07
2023-03-14T04:24:56.216Z,14.55
2023-03-14T04:26:00.530Z,21.90
2023-03-14T04:27:03.101Z,15.77
2023-03-14T04:28:07.261Z,12.60
2023-03-14T04:29:13.538Z,14.02
2023-03-14T04:30:17.834Z,15.07
2023-03-14T04:31:27.999Z,13.57
2023-03-14T04:32:30.181Z,14.02
2023-03-14T04:33:35.154Z,12.85
2023-03-14T04:34:39.992Z,17.55
2023-03-14T04:35:45.905Z,11.98
2023-03-14T04:36:50.460Z,11.68
2023-03-14T04:37:57.387Z,16.92
2023-03-14T04:39:01.213Z,15.75
2023-03-14T04:40:08.681Z,13.23
2023-03-14T04:41:11.404Z,16.77
2023-03-14T04:42:15.680Z,12.23
2023-03-14T04:43:18.713Z,15.18
2023-03-14T04:44:28.314Z,12.10
2023-03-14T04:45:31.032Z,14.60
2023-03-14T04:46:35.364Z,15.13
2023-03-14T04:47:39.748Z,15.95
2023-03-14T04:48:47.028Z,13.52
2023-03-14T04:49:49.856Z,14.60
2023-03-14T04:50:53.185Z,11.80
2023-03-14T04:51:56.604Z,14.60
2023-03-14T04:53:01.436Z,12.05
2023-03-14T04:54:04.195Z,13.18
2023-03-14T04:55:06.443Z,12.02
2023-03-14T04:56:09.402Z,15.52
2023-03-14T04:57:14.201Z,15.02
2023-03-14T04:58:17.063Z,12.63
2023-03-14T04:59:23.361Z,14.15
2023-03-14T05:00:38.826Z,13.90
2023-03-14T05:02:04.940Z,17.42
2023-03-14T05:03:21.002Z,12.82
2023-03-14T05:04:42.124Z,13.63
2023-03-14T05:07:36.750Z,13.23
2023-03-14T05:09:07.082Z,12.95
2023-03-14T05:10:26.751Z,15.80
2023-03-14T05:11:51.680Z,13.18
2023-03-14T05:13:22.169Z,11.25
2023-03-14T05:14:55.334Z,14.05
2023-03-14T05:16:32.481Z,12.68
2023-03-14T05:17:40.814Z,13.07
2023-03-14T05:19:00.156Z,12.18
2023-03-14T05:20:22.127Z,13.70
2023-03-14T05:21:35.336Z,14.73
2023-03-14T05:23:05.436Z,13.30
2023-03-14T05:24:28.826Z,12.38
2023-03-14T05:25:32.680Z,13.27
2023-03-14T05:27:11.335Z,13.98
2023-03-14T05:28:26.818Z,14.57
2023-03-14T05:29:48.762Z,11.82
2023-03-14T05:31:18.381Z,17.48
2023-03-14T05:32:41.682Z,12.40
2023-03-14T05:33:56.337Z,11.43
2023-03-14T05:35:11.359Z,12.65
2023-03-14T05:36:32.877Z,12.73
2023-03-14T05:37:54.162Z,10.93
2023-03-14T05:39:15.422Z,13.40
2023-03-14T05:40:45.625Z,11.15
2023-03-14T05:42:13.580Z,12.88
2023-03-14T05:43:31.933Z,11.70
2023-03-14T05:45:11.743Z,12.48
2023-03-14T05:46:33.781Z,12.30
2023-03-14T05:48:01.469Z,12.60
2023-03-14T05:49:45.843Z,11.40
2023-03-14T05:51:21.676Z,13.10
2023-03-14T05:53:01.589Z,11.18
2023-03-14T05:54:22.005Z,11.05
2023-03-14T05:55:46.792Z,11.48
2023-03-14T05:57:15.156Z,11.52
2023-03-14T05:58:36.074Z,12.13
2023-03-14T06:00:10.797Z,12.43
2023-03-14T06:01:31.790Z,11.63
2023-03-14T06:03:01.898Z,12.35
2023-03-14T06:04:14.848Z,11.05
2023-03-14T06:05:25.798Z,13.40
2023-03-14T06:06:47.167Z,14.32
2023-03-14T06:07:59.602Z,11.68
2023-03-14T06:09:15.288Z,13.50
2023-03-14T06:10:26.767Z,11.00
2023-03-14T06:11:34.703Z,11.13
2023-03-14T06:12:43.915Z,11.98
2023-03-14T06:13:54.523Z,11.25
2023-03-14T06:15:06.262Z,12.13
2023-03-14T06:16:11.414Z,11.05
2023-03-14T06:17:21.609Z,13.10
2023-03-14T06:21:19.290Z,11.27
2023-03-14T06:22:51.888Z,10.25
2023-03-14T06:23:59.187Z,10.85
2023-03-14T06:26:43.335Z,10.05
2023-03-14T06:28:03.676Z,11.82
2023-03-14T06:29:10.168Z,11.38
2023-03-14T06:30:13.484Z,10.80
2023-03-14T06:31:40.840Z,11.35
2023-03-14T06:32:46.428Z,12.23
2023-03-14T06:33:55.639Z,9.60
2023-03-14T06:35:02.305Z,10.68
2023-03-14T06:36:09.423Z,9.50
2023-03-14T06:37:13.920Z,10.98
2023-03-14T06:38:16.303Z,11.07
2023-03-14T06:39:18.551Z,9.88
2023-03-14T06:40:26.746Z,9.57
2023-03-14T06:41:49.698Z,9.75
2023-03-14T06:42:55.325Z,13.05
2023-03-14T06:43:58.737Z,12.75
2023-03-14T06:45:01.261Z,11.52
2023-03-14T06:46:03.882Z,10.32
2023-03-14T06:47:08.036Z,11.65
2023-03-14T06:48:22.823Z,8.98
2023-03-14T06:49:28.496Z,10.73
2023-03-14T06:50:34.204Z,11.65
2023-03-14T06:51:36.529Z,16.17
2023-03-14T06:52:51.700Z,13.00
2023-03-14T06:53:59.167Z,14.15
2023-03-14T06:55:04.726Z,10.73
2023-03-14T06:56:08.938Z,10.80
2023-03-14T06:57:10.963Z,12.57
2023-03-14T06:58:13.389Z,11.20
2023-03-14T06:59:18.744Z,12.32
2023-03-14T07:00:23.764Z,11.00
2023-03-14T07:01:31.726Z,11.43
2023-03-14T07:02:43.530Z,9.30
2023-03-14T07:03:59.016Z,10.80
2023-03-14T07:05:13.908Z,11.85
2023-03-14T07:06:16.108Z,8.88
2023-03-14T07:07:18.727Z,11.75
2023-03-14T07:08:20.783Z,12.45
2023-03-14T07:09:23.585Z,12.32
2023-03-14T07:10:32.025Z,11.43
2023-03-14T07:11:35.786Z,9.60
2023-03-14T07:12:40.097Z,12.10
2023-03-14T07:13:47.572Z,12.38
2023-03-14T07:14:50.251Z,9.15
2023-03-14T07:15:53.934Z,12.57
2023-03-14T07:16:58.117Z,11.07
2023-03-14T07:18:00.350Z,12.75
2023-03-14T07:19:05.968Z,9.90
2023-03-14T07:20:10.357Z,12.35
2023-03-14T07:21:16.582Z,10.80
2023-03-14T07:22:18.764Z,14.90
2023-03-14T07:23:22.856Z,12.77
2023-03-14T07:24:29.120Z,10.52
2023-03-14T07:25:32.776Z,9.40
2023-03-14T07:26:35.362Z,8.90
2023-03-14T07:27:37.643Z,11.02
2023-03-14T07:28:40.177Z,10.70
2023-03-14T07:29:48.938Z,12.93
2023-03-14T07:31:00.489Z,10.77
2023-03-14T07:32:12.156Z,10.82
2023-03-14T07:33:14.233Z,10.15
2023-03-14T07:34:16.703Z,10.20
2023-03-14T07:35:20.681Z,10.90
2023-03-14T07:36:27.104Z,12.55
2023-03-14T07:37:29.156Z,9.98
2023-03-14T07:38:32.859Z,12.70
2023-03-14T07:39:54.347Z,11.63
2023-03-14T07:41:07.994Z,14.43
2023-03-14T07:43:37.036Z,13.85
2023-03-14T07:44:40.533Z,9.38
2023-03-14T07:45:50.969Z,12.57
2023-03-14T07:46:57.226Z,14.75
2023-03-14T07:47:59.425Z,10.50
2023-03-14T07:49:01.595Z,12.57
2023-03-14T07:50:06.186Z,13.20
2023-03-14T07:51:10.238Z,13.40
2023-03-14T07:52:13.489Z,11.18
2023-03-14T07:53:18.940Z,15.63
2023-03-14T07:54:22.389Z,11.38
2023-03-14T07:55:25.892Z,9.50
2023-03-14T07:56:28.428Z,11.18
2023-03-14T07:57:30.460Z,14.50
2023-03-14T07:58:34.002Z,14.93
2023-03-14T07:59:36.329Z,11.65
2023-03-14T08:00:38.684Z,13.10
2023-03-14T08:01:40.977Z,15.30
2023-03-14T08:02:44.020Z,12.93
2023-03-14T08:03:46.982Z,12.27
2023-03-14T08:04:53.041Z,13.95
2023-03-14T08:05:55.951Z,11.65
2023-03-14T08:06:59.072Z,11.88
2023-03-14T08:08:01.325Z,14.80
2023-03-14T08:09:04.327Z,11.43
2023-03-14T08:10:07.105Z,12.50
2023-03-14T08:11:12.905Z,11.60
2023-03-14T08:12:17.541Z,12.73
2023-03-14T08:13:19.613Z,12.43
2023-03-14T08:14:25.026Z,13.50
2023-03-14T08:15:28.100Z,10.48
2023-03-14T08:16:30.275Z,14.60
2023-03-14T08:17:33.906Z,13.05
2023-03-14T08:18:38.142Z,14.10
2023-03-14T08:19:43.556Z,11.23
2023-03-14T08:20:48.241Z,14.00
2023-03-14T08:21:52.026Z,11.77
2023-03-14T08:22:58.086Z,13.70
2023-03-14T08:24:00.457Z,14.48
2023-03-14T08:25:07.326Z,11.73
2023-03-14T08:26:09.935Z,12.98
2023-03-14T08:27:12.377Z,14.38
2023-03-14T08:28:15.098Z,12.73
2023-03-14T08:29:17.140Z,12.40
2023-03-14T08:30:20.834Z,15.23
2023-03-14T08:31:23.377Z,12.48
2023-03-14T08:32:26.661Z,14.93
2023-03-14T08:33:31.259Z,13.45
2023-03-14T08:34:34.752Z,10.10
2023-03-14T08:35:56.883Z,12.05
2023-03-14T08:36:59.752Z,14.57
2023-03-14T08:38:02.814Z,14.80
2023-03-14T08:39:08.784Z,12.23
2023-03-14T08:40:13.186Z,14.52
2023-03-14T08:41:15.759Z,14.02
2023-03-14T08:42:18.811Z,12.25
2023-03-14T08:43:20.794Z,12.68
2023-03-14T08:44:23.080Z,12.13
2023-03-14T08:45:26.270Z,13.50
2023-03-14T08:46:28.354Z,12.65
2023-03-14T08:47:30.866Z,13.27
2023-03-14T08:48:32.889Z,15.07
2023-03-14T08:49:36.318Z,13.60
2023-03-14T08:50:38.601Z,14.30
2023-03-14T08:51:40.907Z,11.65
2023-03-14T08:52:43.069Z,14.85
2023-03-14T08:53:46.662Z,13.80
2023-03-14T08:54:49.117Z,11.00
2023-03-14T08:55:55.432Z,14.20
2023-03-14T08:56:58.360Z,12.27
2023-03-14T08:58:00.888Z,10.13
2023-03-14T08:59:02.882Z,12.68
2023-03-14T09:00:11.824Z,14.38
2023-03-14T09:01:17.396Z,10.82
2023-03-14T09:02:19.970Z,16.15
2023-03-14T09:03:24.557Z,14.30
2023-03-14T09:04:26.729Z,13.82
2023-03-14T09:05:28.871Z,12.93
2023-03-14T09:06:33.762Z,14.02
2023-03-14T09:07:36.170Z,12.85
2023-03-14T09:08:39.940Z,12.43
2023-03-14T09:09:42.071Z,14.55
2023-03-14T09:10:44.312Z,11.38
2023-03-14T09:11:46.315Z,12.73
2023-03-14T09:12:49.007Z,12.18
2023-03-14T09:13:53.516Z,11.43
2023-03-14T09:14:55.690Z,12.80
2023-03-14T09:15:58.522Z,13.10
2023-03-14T09:17:00.904Z,12.93
2023-03-14T09:18:02.990Z,12.18
2023-03-14T09:19:05.076Z,10.68
2023-03-14T09:20:08.594Z,14.90
2023-03-14T09:21:12.669Z,11.48
2023-03-14T09:22:14.812Z,9.77
2023-03-14T09:23:19.675Z,11.98
2023-03-14T09:24:22.915Z,12.75
2023-03-14T09:25:25.173Z,12.77
2023-03-14T09:26:27.316Z,12.55
2023-03-14T09:27:29.893Z,11.65
2023-03-14T09:28:31.997Z,12.25
2023-03-14T09:29:35.545Z,9.88
2023-03-14T09:30:38.756Z,11.02
2023-03-14T09:31:41.345Z,13.60
2023-03-14T09:32:43.931Z,11.30
2023-03-14T09:33:51.666Z,17.67
2023-03-14T09:34:56.183Z,12.98
2023-03-14T09:36:04.791Z,11.77
2023-03-14T09:37:08.290Z,12.55
2023-03-14T09:38:11.160Z,11.82
2023-03-14T09:39:14.338Z,13.27
2023-03-14T09:40:19.216Z,12.77
2023-03-14T09:41:32.004Z,13.43
2023-03-14T09:42:34.015Z,15.63
2023-03-14T09:43:38.476Z,11.68
2023-03-14T09:44:51.582Z,12.27
2023-03-14T09:45:56.759Z,11.43
2023-03-14T09:47:07.517Z,13.25
2023-03-14T09:48:18.075Z,13.85
2023-03-14T09:49:31.749Z,13.18
2023-03-14T09:51:01.356Z,11.93
2023-03-14T09:52:18.928Z,12.40
2023-03-14T09:53:45.085Z,12.98
2023-03-14T09:54:51.664Z,13.60
2023-03-14T09:55:56.790Z,11.75
2023-03-14T09:56:59.451Z,15.20
2023-03-14T09:58:07.210Z,14.63
2023-03-14T09:59:14.883Z,12.52
2023-03-14T10:00:24.088Z,15.27
2023-03-14T10:02:36.830Z,15.15
2023-03-14T10:03:39.582Z,12.57
2023-03-14T10:04:45.752Z,14.77
2023-03-14T10:05:48.438Z,11.98
2023-03-14T10:06:51.478Z,13.57
2023-03-14T10:07:54.752Z,13.43
2023-03-14T10:08:58.012Z,12.90
2023-03-14T10:10:01.913Z,12.40
2023-03-14T10:11:04.099Z,12.57
2023-03-14T10:12:09.544Z,11.30
2023-03-14T10:13:30.635Z,11.88
2023-03-14T10:14:36.088Z,11.90
2023-03-14T10:15:45.758Z,12.15
2023-03-14T10:16:48.377Z,14.83
2023-03-14T10:17:53.831Z,12.57
2023-03-14T10:19:07.891Z,15.55
2023-03-14T10:20:40.797Z,13.43
2023-03-14T10:21:53.776Z,14.15
2023-03-14T10:23:02.780Z,14.00
2023-03-14T10:25:35.792Z,14.98
2023-03-14T10:26:42.818Z,15.15
2023-03-14T10:27:48.219Z,13.25
2023-03-14T10:29:14.585Z,14.40
2023-03-14T10:30:45.627Z,13.77
2023-03-14T10:33:23.475Z,12.85
2023-03-14T10:34:39.659Z,9.85
2023-03-14T10:35:43.412Z,17.00
2023-03-14T10:36:54.508Z,13.07
2023-03-14T10:38:05.522Z,14.10
2023-03-14T10:40:01.500Z,14.63
2023-03-14T10:41:18.167Z,13.63
2023-03-14T10:42:31.698Z,14.60
2023-03-14T10:43:37.772Z,10.68
2023-03-14T10:46:04.708Z,12.35
2023-03-14T10:47:10.492Z,14.15
2023-03-14T10:48:26.281Z,14.88
2023-03-14T10:49:34.006Z,15.20
2023-03-14T10:50:39.087Z,16.02
2023-03-14T10:51:41.248Z,12.68
2023-03-14T10:53:02.057Z,12.32
2023-03-14T10:54:15.687Z,13.30
2023-03-14T10:55:19.431Z,14.82
2023-03-14T10:56:26.964Z,14.07
2023-03-14T10:57:29.384Z,12.65
2023-03-14T10:58:42.449Z,13.18
2023-03-14T10:59:45.377Z,11.90
2023-03-14T11:00:59.824Z,12.25
2023-03-14T11:02:42.436Z,14.98
2023-03-14T11:03:53.823Z,11.43
2023-03-14T11:05:16.259Z,12.00
2023-03-14T11:06:45.640Z,15.05
2023-03-14T11:07:47.905Z,13.10
2023-03-14T11:08:55.268Z,12.60
2023-03-14T11:10:12.878Z,15.25
2023-03-14T11:11:20.600Z,13.77
2023-03-14T11:13:04.094Z,12.48
2023-03-14T11:14:26.538Z,13.88
2023-03-14T11:15:58.983Z,13.80
2023-03-14T11:17:28.745Z,15.35
2023-03-14T11:18:55.208Z,14.90
2023-03-14T11:21:50.283Z,15.57
2023-03-14T11:22:55.073Z,12.27
2023-03-14T11:24:12.064Z,12.82
2023-03-14T11:25:27.766Z,11.38
2023-03-14T11:27:03.052Z,10.82
2023-03-14T11:28:22.321Z,15.85
2023-03-14T11:29:40.834Z,13.23
2023-03-14T11:30:56.439Z,11.55
2023-03-14T11:32:03.022Z,13.82
2023-03-14T11:33:26.377Z,13.68
2023-03-14T11:34:45.535Z,13.07
2023-03-14T11:36:04.885Z,12.43
2023-03-14T11:37:23.403Z,12.30
2023-03-14T11:38:35.187Z,14.50
2023-03-14T11:39:44.899Z,17.02
2023-03-14T11:40:50.235Z,10.68
2023-03-14T11:41:58.699Z,12.35
2023-03-14T11:44:26.147Z,13.10
2023-03-14T11:45:35.371Z,12.98
2023-03-14T11:46:54.286Z,13.57
2023-03-14T11:48:18.918Z,15.63
2023-03-14T11:50:14.978Z,13.52
2023-03-14T11:51:25.575Z,16.30
2023-03-14T11:52:36.240Z,13.07
2023-03-14T11:53:58.167Z,11.05
2023-03-14T11:55:27.253Z,13.02
2023-03-14T11:56:35.691Z,17.15
2023-03-14T11:57:39.536Z,14.45
2023-03-14T11:58:56.761Z,10.88
2023-03-14T12:00:17.285Z,11.20
2023-03-14T12:01:24.821Z,11.35
2023-03-14T12:03:09.473Z,16.90
2023-03-14T12:04:33.368Z,16.30
2023-03-14T12:05:49.794Z,14.88
2023-03-14T12:06:53.928Z,10.90
2023-03-14T12:08:10.825Z,12.43
2023-03-14T12:09:14.562Z,16.63
2023-03-14T12:10:16.685Z,12.38
2023-03-14T12:11:44.276Z,11.63
2023-03-14T12:12:47.058Z,15.30
2023-03-14T12:13:52.170Z,11.88
2023-03-14T12:15:04.085Z,13.27
2023-03-14T12:16:21.814Z,14.32
2023-03-14T12:17:44.427Z,12.07
2023-03-14T12:18:46.766Z,11.80
2023-03-14T12:20:03.148Z,13.77
2023-03-14T12:21:08.328Z,10.90
2023-03-14T12:22:23.418Z,9.35
2023-03-14T12:23:28.296Z,10.45
2023-03-14T12:24:33.529Z,10.75
2023-03-14T12:25:36.679Z,9.85
2023-03-14T12:27:13.715Z,13.43
2023-03-14T12:28:21.976Z,11.82
2023-03-14T12:29:25.596Z,10.05
2023-03-14T12:30:30.705Z,12.02
2023-03-14T12:31:32.844Z,9.57
2023-03-14T12:32:34.856Z,10.32
2023-03-14T12:33:37.227Z,11.70
2023-03-14T12:34:44.421Z,10.13
2023-03-14T12:36:05.909Z,11.23
2023-03-14T12:37:10.748Z,12.80
2023-03-14T12:38:17.560Z,10.15
2023-03-14T12:39:37.487Z,10.27
2023-03-14T12:40:50.626Z,12.00
2023-03-14T12:41:54.718Z,10.40
2023-03-14T12:43:05.156Z,12.00
2023-03-14T12:44:32.885Z,12.20
2023-03-14T12:45:36.537Z,12.60
2023-03-14T12:46:39.176Z,13.75
2023-03-14T12:47:46.366Z,10.35
2023-03-14T12:48:56.682Z,9.82
2023-03-14T12:50:14.920Z,9.10
2023-03-14T12:51:47.998Z,10.20
2023-03-14T12:53:18.668Z,11.10
2023-03-14T12:54:45.964Z,9.93
2023-03-14T12:55:58.513Z,10.18
2023-03-14T12:57:10.354Z,8.88
2023-03-14T12:58:45.987Z,9.35
2023-03-14T12:59:53.073Z,11.48
2023-03-14T13:01:04.344Z,13.68
2023-03-14T13:02:09.671Z,12.50
2023-03-14T13:03:28.504Z,10.35
2023-03-14T13:06:00.118Z,12.75
2023-03-14T13:07:05.092Z,9.75
2023-03-14T13:08:10.297Z,14.65
2023-03-14T13:09:27.193Z,11.60
2023-03-14T13:10:40.010Z,10.60
2023-03-14T13:11:44.355Z,11.30
2023-03-14T13:12:51.395Z,12.38
2023-03-14T13:13:58.604Z,12.98
2023-03-14T13:15:02.208Z,10.77
2023-03-14T13:16:07.058Z,10.88
2023-03-14T13:17:34.049Z,13.07
2023-03-14T13:18:43.519Z,11.20
2023-03-14T13:19:52.585Z,10.95
2023-03-14T13:22:05.435Z,13.35
2023-03-14T13:23:23.745Z,12.05
2023-03-14T13:24:28.469Z,13.13
2023-03-14T13:25:34.089Z,11.73
2023-03-14T13:26:43.596Z,11.57
2023-03-14T13:27:47.635Z,12.43
2023-03-14T13:28:50.720Z,12.02
2023-03-14T13:29:53.132Z,12.43
2023-03-14T13:31:00.233Z,11.82
2023-03-14T13:32:23.599Z,11.10
2023-03-14T13:33:27.323Z,13.00
2023-03-14T13:34:34.015Z,11.65
2023-03-14T13:35:48.856Z,16.02
2023-03-14T13:37:02.634Z,13.48
2023-03-14T13:38:11.447Z,12.40
2023-03-14T13:39:26.822Z,14.60
2023-03-14T13:40:37.603Z,15.27
2023-03-14T13:41:50.689Z,29.20
2023-03-14T13:43:22.772Z,16.40
2023-03-14T13:44:39.115Z,15.52
2023-03-14T13:46:10.364Z,11.40
2023-03-14T13:47:22.803Z,14.32
2023-03-14T13:48:30.044Z,11.88
2023-03-14T13:49:38.906Z,12.00
2023-03-14T13:50:57.265Z,13.40
2023-03-14T13:51:59.836Z,12.55
2023-03-14T13:53:03.071Z,11.15
2023-03-14T13:54:14.961Z,15.43
2023-03-14T13:55:22.048Z,12.05
2023-03-14T13:56:29.106Z,14.57
2023-03-14T13:57:49.740Z,12.52
2023-03-14T13:58:52.112Z,11.05
2023-03-14T14:00:11.170Z,11.57
2023-03-14T14:01:19.350Z,10.93
2023-03-14T14:02:25.865Z,12.60
2023-03-14T14:03:30.389Z,16.85
2023-03-14T14:04:38.224Z,10.75
2023-03-14T14:05:42.677Z,10.20
2023-03-14T14:06:53.514Z,13.63
2023-03-14T14:07:56.120Z,12.10
2023-03-14T14:09:03.221Z,12.50
2023-03-14T14:10:06.332Z,13.52
2023-03-14T14:11:15.597Z,15.00
2023-03-14T14:12:21.731Z,11.27
2023-03-14T14:13:25.957Z,11.98
2023-03-14T14:14:30.872Z,12.10
2023-03-14T14:15:41.167Z,12.23
2023-03-14T14:16:46.017Z,13.23
2023-03-14T14:18:02.290Z,9.68
2023-03-14T14:19:04.941Z,12.02
2023-03-14T14:20:33.629Z,11.70
2023-03-14T14:21:36.079Z,14.88
2023-03-14T14:22:38.443Z,10.30
2023-03-14T14:23:40.799Z,14.18
2023-03-14T14:24:43.443Z,12.15
2023-03-14T14:25:46.592Z,14.45
2023-03-14T14:26:54.356Z,12.88
2023-03-14T14:27:59.569Z,11.27
2023-03-14T14:29:10.131Z,9.80
2023-03-14T14:30:18.100Z,15.70
2023-03-14T14:31:24.150Z,12.40
2023-03-14T14:32:29.150Z,12.05
2023-03-14T14:33:42.072Z,11.02
2023-03-14T14:34:53.001Z,14.38
2023-03-14T14:36:00.842Z,13.00
2023-03-14T14:37:03.539Z,16.10
2023-03-14T14:38:14.437Z,15.23
2023-03-14T14:39:27.382Z,13.48
2023-03-14T14:40:32.148Z,15.15
2023-03-14T14:41:36.674Z,12.73
2023-03-14T14:42:43.316Z,12.32
2023-03-14T14:43:49.721Z,17.40
2023-03-14T14:44:52.758Z,13.25
2023-03-14T14:45:57.232Z,13.95
2023-03-14T14:47:00.334Z,13.75
2023-03-14T14:48:02.312Z,12.60
2023-03-14T14:49:10.089Z,12.10
2023-03-14T14:50:31.068Z,15.55
2023-03-14T14:51:38.600Z,13.73
2023-03-14T14:52:45.513Z,14.32
2023-03-14T14:53:55.944Z,16.02
2023-03-14T14:55:03.319Z,12.35
2023-03-14T14:56:16.798Z,13.80
2023-03-14T14:57:25.514Z,13.93
2023-03-14T14:58:31.463Z,13.52
2023-03-14T14:59:44.821Z,14.20
2023-03-14T15:00:55.194Z,10.15
2023-03-14T15:01:59.951Z,12.50
2023-03-14T15:03:02.110Z,15.88
2023-03-14T15:04:16.786Z,13.23
2023-03-14T15:05:21.813Z,13.85
2023-03-14T15:06:29.192Z,14.20
2023-03-14T15:07:36.103Z,12.90
2023-03-14T15:08:39.050Z,13.98